Time;durP1;ratioP1;P1;durP2;ratioP2;P2;SDS_P1;SDS_P2;PMS_P1;PMS_P2;Temp;Humidity;BMP_temperature;BMP_pressure;BME280_temperature;BME280_humidity;BME280_pressure;Samples;Min_cycle;Max_cycle;Signal;HPM_P1;HPM_P2
2022/06/28 00:02:46;;;;;;;3.35;2.45;;;;;;;23.39;58.06;100398.31;5531732;32;34214;-66
2022/06/28 00:05:49;;;;;;;3.35;2.28;;;;;;;23.32;58.87;100403.13;5532065;32;34403;-66
2022/06/28 00:08:52;;;;;;;4.45;2.30;;;;;;;23.28;58.30;100403.88;5530842;32;34050;-66
2022/06/28 00:11:55;;;;;;;4.80;2.15;;;;;;;23.24;57.95;100411.66;5531540;32;33922;-66
2022/06/28 00:18:19;;;;;;;3.72;2.42;;;;;;;23.19;58.89;100406.16;5531597;32;34209;-65
2022/06/28 00:21:21;;;;;;;4.93;2.67;;;;;;;23.22;59.39;100400.28;5531622;32;34698;-66
2022/06/28 00:24:24;;;;;;;7.50;2.50;;;;;;;23.23;60.04;100401.94;5530588;32;34068;-66
2022/06/28 00:27:27;;;;;;;6.50;2.60;;;;;;;23.25;61.19;100401.66;5531546;32;34585;-66
2022/06/28 00:30:30;;;;;;;3.53;2.40;;;;;;;23.21;62.15;100405.94;5531495;32;34732;-66
2022/06/28 00:33:33;;;;;;;7.97;2.75;;;;;;;23.18;64.20;100409.16;5531468;32;33879;-66
2022/06/28 00:36:36;;;;;;;4.65;2.87;;;;;;;23.10;66.30;100406.84;5531477;32;34006;-66
2022/06/28 00:39:39;;;;;;;5.80;2.83;;;;;;;23.17;67.21;100407.50;5531461;32;34031;-66
2022/06/28 00:42:42;;;;;;;5.18;2.80;;;;;;;23.09;68.34;100408.72;5531336;32;35430;-65
2022/06/28 00:45:46;;;;;;;4.80;2.90;;;;;;;23.36;66.90;100406.97;5531233;32;34117;-66
2022/06/28 00:48:49;;;;;;;5.40;2.70;;;;;;;23.40;66.98;100415.41;5531681;32;34561;-65
2022/06/28 00:51:52;;;;;;;4.47;2.92;;;;;;;23.48;66.54;100404.16;5531408;32;33876;-66
2022/06/28 00:54:55;;;;;;;6.28;2.55;;;;;;;23.30;66.63;100410.66;5531294;32;34028;-66
2022/06/28 00:57:58;;;;;;;8.93;3.30;;;;;;;23.24;66.58;100417.06;5531616;32;33995;-66
2022/06/28 01:01:01;;;;;;;5.07;2.62;;;;;;;23.07;66.67;100421.72;5531298;32;34154;-66
2022/06/28 01:04:04;;;;;;;4.47;2.47;;;;;;;23.17;66.43;100421.03;5531062;32;34446;-66
2022/06/28 01:07:07;;;;;;;4.22;2.60;;;;;;;23.06;66.97;100413.84;5531151;32;33928;-66
2022/06/28 01:10:10;;;;;;;3.95;2.55;;;;;;;23.11;66.70;100425.56;5531196;32;35240;-66
2022/06/28 01:13:13;;;;;;;6.22;2.30;;;;;;;22.91;66.74;100422.53;5531359;32;33993;-66
2022/06/28 01:16:17;;;;;;;6.85;2.78;;;;;;;22.85;66.70;100421.62;5530550;32;34223;-66
2022/06/28 01:19:22;;;;;;;3.47;2.55;;;;;;;22.94;66.02;100430.19;5531456;32;34006;-66
2022/06/28 01:22:29;;;;;;;5.43;2.70;;;;;;;22.94;66.17;100425.59;5531332;32;35358;-65
2022/06/28 01:25:32;;;;;;;5.65;2.58;;;;;;;22.91;66.27;100436.06;5531003;32;34014;-66
2022/06/28 01:28:35;;;;;;;4.15;2.95;;;;;;;22.83;66.66;100422.97;5530947;32;34424;-66
2022/06/28 01:31:40;;;;;;;4.57;2.60;;;;;;;22.71;66.65;100425.75;5531363;32;34631;-66
2022/06/28 01:34:44;;;;;;;2.97;2.40;;;;;;;22.69;66.72;100425.16;5530714;32;34637;-65
2022/06/28 01:37:50;;;;;;;8.10;2.60;;;;;;;22.84;65.60;100427.31;5530886;32;33836;-66
2022/06/28 01:40:54;;;;;;;4.85;2.40;;;;;;;22.71;65.73;100422.22;5530757;32;33917;-66
2022/06/28 01:43:58;;;;;;;3.35;2.70;;;;;;;22.65;65.81;100415.09;5530884;32;34372;-64
2022/06/28 01:47:02;;;;;;;5.68;2.60;;;;;;;22.60;65.09;100417.69;5530670;32;34629;-65
2022/06/28 01:50:07;;;;;;;2.75;2.37;;;;;;;22.66;64.68;100414.00;5530651;32;34630;-65
2022/06/28 01:53:11;;;;;;;4.87;2.90;;;;;;;22.64;64.05;100414.25;5530999;32;34396;-65
2022/06/28 01:56:14;;;;;;;10.43;2.40;;;;;;;22.63;63.75;100415.31;5530545;32;33952;-65
2022/06/28 01:59:17;;;;;;;2.35;2.08;;;;;;;22.60;63.98;100423.09;5530940;32;34067;-65
2022/06/28 02:02:24;;;;;;;6.05;2.70;;;;;;;22.73;64.08;100420.09;5521767;32;312818;-65
2022/06/28 02:05:29;;;;;;;4.43;2.60;;;;;;;22.54;65.15;100425.72;5530438;32;34115;-65
2022/06/28 02:08:34;;;;;;;5.05;2.67;;;;;;;22.51;66.01;100441.63;5530436;32;34233;-65
2022/06/28 02:11:38;;;;;;;2.95;2.53;;;;;;;22.46;67.31;100442.34;5530376;32;34296;-65
2022/06/28 02:14:42;;;;;;;3.72;2.60;;;;;;;22.40;67.65;100446.03;5530580;32;34351;-65
2022/06/28 02:17:45;;;;;;;6.43;3.00;;;;;;;22.31;67.82;100439.38;5530136;32;34258;-65
2022/06/28 02:20:48;;;;;;;6.25;2.72;;;;;;;22.31;67.69;100443.97;5530564;32;33888;-65
2022/06/28 02:23:51;;;;;;;4.10;2.70;;;;;;;22.23;68.29;100447.88;5530082;32;34017;-65
2022/06/28 02:26:54;;;;;;;7.07;2.72;;;;;;;22.15;68.42;100453.66;5530136;32;33948;-65
2022/06/28 02:29:57;;;;;;;5.43;2.58;;;;;;;22.12;68.39;100453.34;5530098;32;33914;-64
2022/06/28 02:32:59;;;;;;;6.55;2.80;;;;;;;22.09;68.57;100441.13;5530006;32;34723;-65
2022/06/28 02:42:59;;;;;;;7.72;2.55;;;;;;;21.97;68.71;100422.28;5529690;32;34128;-65
2022/06/28 02:46:01;;;;;;;7.40;2.85;;;;;;;22.09;68.40;100441.13;5530027;32;34240;-65
2022/06/28 02:49:07;;;;;;;4.78;2.72;;;;;;;22.16;68.72;100449.09;5532232;32;34221;-65
2022/06/28 02:52:10;;;;;;;9.63;2.95;;;;;;;22.11;68.26;100449.81;5532319;32;34028;-65
2022/06/28 02:55:14;;;;;;;4.10;2.70;;;;;;;22.04;68.45;100454.53;5532371;32;33985;-64
2022/06/28 02:58:17;;;;;;;4.62;2.90;;;;;;;22.08;68.27;100448.41;5532244;32;34006;-64
2022/06/28 03:01:19;;;;;;;4.60;2.65;;;;;;;22.03;68.56;100451.00;5532230;32;35421;-65
2022/06/28 03:04:22;;;;;;;4.25;2.70;;;;;;;22.01;68.78;100447.75;5532151;32;34043;-65
2022/06/28 03:07:25;;;;;;;5.05;2.87;;;;;;;21.96;68.86;100442.25;5532172;32;34508;-65
2022/06/28 03:10:28;;;;;;;7.37;2.72;;;;;;;21.96;68.65;100442.25;5532470;32;33885;-65
2022/06/28 03:13:30;;;;;;;4.85;2.75;;;;;;;21.99;68.02;100447.16;5531990;32;34057;-65
2022/06/28 03:16:33;;;;;;;6.47;2.42;;;;;;;22.07;67.37;100448.66;5531979;32;34723;-65
2022/06/28 03:19:36;;;;;;;5.28;3.00;;;;;;;22.16;66.42;100447.22;5531935;32;35369;-65
2022/06/28 03:22:39;;;;;;;7.15;2.97;;;;;;;22.19;66.11;100449.41;5532067;32;34303;-65
2022/06/28 03:25:43;;;;;;;4.57;2.75;;;;;;;22.24;65.90;100454.91;5532051;32;34271;-65
2022/06/28 03:28:48;;;;;;;5.50;2.50;;;;;;;22.27;65.21;100459.03;5532493;32;35224;-65
2022/06/28 03:31:51;;;;;;;3.92;2.50;;;;;;;22.28;65.04;100458.78;5531941;32;34310;-65
2022/06/28 03:34:54;;;;;;;5.03;2.25;;;;;;;22.37;64.54;100470.00;5531937;32;33960;-65
2022/06/28 03:37:57;;;;;;;6.18;2.70;;;;;;;22.40;64.75;100481.19;5531987;32;33931;-64
2022/06/28 03:41:03;;;;;;;4.70;2.33;;;;;;;22.45;63.73;100497.50;5532115;32;33939;-64
2022/06/28 03:44:05;;;;;;;5.22;2.53;;;;;;;22.74;63.01;100516.41;5532194;32;34084;-65
2022/06/28 03:47:08;;;;;;;5.53;2.37;;;;;;;22.68;62.71;100523.59;5531878;32;35409;-65
2022/06/28 03:50:12;;;;;;;5.82;2.30;;;;;;;22.71;63.11;100539.34;5531103;32;34866;-66
2022/06/28 03:53:16;;;;;;;3.10;2.37;;;;;;;22.95;62.99;100553.56;5531653;32;34102;-65
2022/06/28 03:56:19;;;;;;;7.10;2.67;;;;;;;22.91;63.18;100565.94;5531843;32;33989;-65
2022/06/28 03:59:22;;;;;;;7.45;2.70;;;;;;;22.83;62.95;100566.34;5530651;32;34738;-65
2022/06/28 04:02:25;;;;;;;4.95;2.60;;;;;;;22.81;62.79;100566.56;5531617;32;33923;-65
2022/06/28 04:05:29;;;;;;;4.37;2.35;;;;;;;22.86;61.95;100555.84;5531528;32;34049;-65
2022/06/28 04:08:32;;;;;;;3.45;2.42;;;;;;;22.96;61.82;100553.31;5531862;32;33898;-65
2022/06/28 04:11:35;;;;;;;5.47;2.50;;;;;;;23.14;61.14;100562.28;5531904;32;33932;-65
2022/06/28 04:14:38;;;;;;;4.87;2.50;;;;;;;23.25;60.76;100564.88;5531905;32;34012;-65
2022/06/28 04:17:41;;;;;;;4.78;2.50;;;;;;;23.45;59.92;100572.53;5531582;32;34144;-65
2022/06/28 04:20:45;;;;;;;8.23;2.25;;;;;;;23.63;59.30;100566.03;5531405;32;34928;-66
2022/06/28 04:23:48;;;;;;;2.95;2.15;;;;;;;23.79;58.25;100549.75;5531520;32;34407;-65
2022/06/28 04:26:51;;;;;;;5.00;2.30;;;;;;;24.03;58.16;100553.03;5531627;32;34268;-65
2022/06/28 04:29:55;;;;;;;4.85;2.55;;;;;;;24.27;57.18;100555.53;5531500;32;34288;-65
2022/06/28 04:33:00;;;;;;;3.10;2.00;;;;;;;24.53;56.31;100561.00;5531497;32;35180;-65
2022/06/28 04:36:04;;;;;;;9.63;2.20;;;;;;;24.95;54.32;100554.91;5530771;32;35321;-65
2022/06/28 04:39:06;;;;;;;2.72;1.98;;;;;;;24.98;54.60;100557.12;5531490;32;33941;-64
2022/06/28 04:42:09;;;;;;;6.35;1.90;;;;;;;25.09;52.72;100553.41;5531316;32;34679;-65
2022/06/28 04:45:12;;;;;;;5.75;2.00;;;;;;;25.33;52.17;100554.66;5530914;32;34681;-64
2022/06/28 04:48:17;;;;;;;2.78;2.08;;;;;;;25.58;50.73;100551.34;5531680;32;34170;-65
2022/06/28 04:51:20;;;;;;;2.85;1.80;;;;;;;26.05;49.16;100554.03;5530728;32;34202;-65
2022/06/28 04:54:22;;;;;;;6.18;1.80;;;;;;;26.35;48.87;100567.78;5531137;32;33989;-65
2022/06/28 04:57:29;;;;;;;7.12;2.28;;;;;;;26.61;48.21;100589.63;5531176;32;35179;-65
2022/06/28 05:00:32;;;;;;;7.18;2.10;;;;;;;26.52;48.06;100611.09;5531196;32;34049;-65
2022/06/28 05:03:55;;;;;;;4.30;1.92;;;;;;;26.10;49.28;100640.25;5531063;32;34563;-65
2022/06/28 05:07:00;;;;;;;5.95;1.83;;;;;;;25.38;49.80;100636.19;5530949;32;34027;-65
2022/06/28 05:10:04;;;;;;;5.60;1.80;;;;;;;25.45;51.46;100639.53;5530487;32;34010;-65
2022/06/28 05:13:07;;;;;;;9.30;2.20;;;;;;;25.22;50.72;100639.88;5530857;32;34575;-65
2022/06/28 05:16:11;;;;;;;6.40;2.15;;;;;;;25.18;51.07;100644.16;5530072;32;32504;-64
2022/06/28 05:19:14;;;;;;;8.93;2.15;;;;;;;25.21;50.74;100657.25;5531083;32;33953;-64
2022/06/28 05:22:16;;;;;;;3.90;1.70;;;;;;;25.32;50.48;100652.72;5530813;32;34227;-64
2022/06/28 05:25:20;;;;;;;9.98;2.12;;;;;;;25.35;50.47;100636.72;5530895;32;34033;-65
2022/06/28 05:28:24;;;;;;;3.25;1.83;;;;;;;25.56;50.32;100662.19;5530662;32;33905;-65
2022/06/28 05:31:27;;;;;;;8.13;2.55;;;;;;;25.63;50.98;100689.13;5530372;32;33915;-65
2022/06/28 05:34:29;;;;;;;8.38;2.40;;;;;;;25.54;52.20;100702.34;5531098;32;34354;-65
2022/06/28 05:37:32;;;;;;;33.28;3.72;;;;;;;25.11;54.03;100711.44;5530818;32;34736;-66
2022/06/28 05:40:36;;;;;;;9.10;2.47;;;;;;;24.85;57.48;100687.75;5530516;32;33986;-64
2022/06/28 05:43:39;;;;;;;8.00;2.60;;;;;;;24.45;61.71;100674.50;5530303;32;35242;-67
2022/06/28 05:46:44;;;;;;;6.53;2.37;;;;;;;24.40;61.91;100696.16;5530565;32;34418;-65
2022/06/28 05:49:47;;;;;;;8.10;2.60;;;;;;;24.22;63.61;100698.09;5529733;32;32512;-66
2022/06/28 05:52:49;;;;;;;9.85;2.60;;;;;;;24.26;64.40;100701.09;5530504;32;34205;-66
2022/06/28 05:55:52;;;;;;;8.55;2.42;;;;;;;24.22;65.25;100676.41;5530638;32;34704;-66
2022/06/28 05:58:55;;;;;;;9.05;2.70;;;;;;;24.17;69.47;100664.66;5530512;32;33985;-71
2022/06/28 06:01:58;;;;;;;14.95;2.70;;;;;;;22.67;83.59;100586.84;5530967;32;34293;-68
2022/06/28 06:05:02;;;;;;;5.07;2.75;;;;;;;21.32;96.30;100582.81;5530318;32;34196;-68
2022/06/28 06:08:05;;;;;;;6.20;2.58;;;;;;;20.79;100.00;100538.59;5529837;32;34261;-69
2022/06/28 06:11:08;;;;;;;5.80;2.90;;;;;;;20.48;100.00;100505.69;5530378;32;34304;-69
2022/06/28 06:14:11;;;;;;;8.02;3.08;;;;;;;20.28;100.00;100484.37;5530207;32;34252;-69
2022/06/28 06:17:13;;;;;;;7.00;2.90;;;;;;;20.14;100.00;100474.81;5530322;32;34076;-69
2022/06/28 06:20:16;;;;;;;8.48;3.35;;;;;;;20.06;100.00;100485.91;5530093;32;34181;-70
2022/06/28 06:23:19;;;;;;;7.90;3.10;;;;;;;19.99;100.00;100506.72;5518703;32;34133;-71
2022/06/28 06:26:24;;;;;;;7.30;3.28;;;;;;;20.12;100.00;100501.97;5532168;32;33909;-70
2022/06/28 06:29:28;;;;;;;7.05;3.20;;;;;;;20.19;100.00;100528.81;5532808;32;34054;-71
2022/06/28 06:32:31;;;;;;;7.75;3.37;;;;;;;20.30;100.00;100565.78;5532895;32;34344;-70
2022/06/28 06:35:35;;;;;;;11.43;3.40;;;;;;;20.37;100.00;100547.69;5532855;32;34097;-71
2022/06/28 06:38:38;;;;;;;10.98;4.00;;;;;;;20.43;100.00;100560.22;5532515;32;33941;-70
2022/06/28 06:41:41;;;;;;;12.98;3.50;;;;;;;20.57;100.00;100545.56;5532491;32;34587;-70
2022/06/28 06:44:44;;;;;;;8.73;3.53;;;;;;;20.46;100.00;100543.62;5532362;32;33973;-69
2022/06/28 06:47:47;;;;;;;11.10;3.12;;;;;;;20.53;100.00;100541.66;5532516;32;34402;-70
2022/06/28 06:50:49;;;;;;;14.70;3.45;;;;;;;20.52;100.00;100531.94;5532174;32;34390;-71
2022/06/28 06:53:52;;;;;;;12.80;3.47;;;;;;;20.33;100.00;100531.13;5532276;32;34744;-70
2022/06/28 06:56:54;;;;;;;6.68;2.90;;;;;;;20.28;100.00;100567.88;5531570;32;32883;-70
2022/06/28 06:59:57;;;;;;;9.13;3.22;;;;;;;20.32;100.00;100548.38;5531833;32;32445;-71
2022/06/28 07:03:03;;;;;;;6.45;3.25;;;;;;;20.19;100.00;100531.50;5532300;32;33973;-72
2022/06/28 07:06:06;;;;;;;7.75;3.30;;;;;;;20.20;100.00;100527.78;5532238;32;34047;-70
2022/06/28 07:09:09;;;;;;;12.30;3.53;;;;;;;20.35;100.00;100542.53;5532158;32;34658;-70
2022/06/28 07:12:12;;;;;;;9.98;3.00;;;;;;;20.35;100.00;100531.75;5532365;32;34666;-70
2022/06/28 07:15:14;;;;;;;9.48;3.15;;;;;;;20.46;100.00;100510.47;5532169;32;34358;-70
2022/06/28 07:18:17;;;;;;;8.23;3.35;;;;;;;20.30;100.00;100483.09;5531725;32;34617;-71
2022/06/28 07:21:20;;;;;;;8.30;3.40;;;;;;;20.35;100.00;100455.47;5531988;32;34016;-70
2022/06/28 07:24:23;;;;;;;6.50;2.85;;;;;;;20.52;100.00;100450.25;5532226;32;34267;-71
2022/06/28 07:27:27;;;;;;;6.50;2.87;;;;;;;20.64;100.00;100472.66;5532126;32;33995;-70
2022/06/28 07:30:30;;;;;;;9.02;3.22;;;;;;;20.75;100.00;100488.03;5532352;32;33899;-69
2022/06/28 07:33:32;;;;;;;9.18;3.00;;;;;;;20.84;100.00;100497.44;5531505;32;34458;-71
2022/06/28 07:36:35;;;;;;;6.30;3.00;;;;;;;20.97;100.00;100502.59;5531711;32;34756;-70
2022/06/28 07:39:38;;;;;;;9.05;3.42;;;;;;;21.05;100.00;100507.69;5531681;32;34075;-70
2022/06/28 07:42:43;;;;;;;9.80;3.50;;;;;;;21.32;100.00;100520.72;5532017;32;33977;-69
2022/06/28 07:45:50;;;;;;;9.98;3.12;;;;;;;21.63;100.00;100526.59;5532198;32;33899;-70
2022/06/28 07:48:53;;;;;;;7.07;3.12;;;;;;;21.85;100.00;100515.97;5531687;32;33874;-70
2022/06/28 07:55:18;;;;;;;9.43;3.00;;;;;;;22.07;100.00;100527.81;5531869;32;34075;-69
2022/06/28 07:58:21;;;;;;;8.48;3.05;;;;;;;22.28;100.00;100530.91;5531761;32;33927;-70
2022/06/28 08:01:24;;;;;;;10.68;2.95;;;;;;;22.51;100.00;100538.97;5531789;32;34533;-69
2022/06/28 08:04:27;;;;;;;13.25;3.05;;;;;;;22.51;100.00;100560.59;5531549;32;34337;-70
2022/06/28 08:07:32;;;;;;;7.90;3.00;;;;;;;22.65;100.00;100575.47;5531765;32;33997;-69
2022/06/28 08:10:36;;;;;;;5.37;2.40;;;;;;;22.71;100.00;100588.03;5531633;32;33938;-69
2022/06/28 08:13:39;;;;;;;7.95;2.37;;;;;;;22.64;100.00;100589.22;5531451;32;34198;-68
2022/06/28 08:16:42;;;;;;;5.85;2.50;;;;;;;22.56;100.00;100589.63;5531578;32;34584;-68
2022/06/28 08:19:45;;;;;;;10.32;3.70;;;;;;;22.57;100.00;100581.22;5530545;32;32601;-67
2022/06/28 08:22:48;;;;;;;23.48;7.43;;;;;;;22.54;100.00;100585.25;5531474;32;34008;-66
2022/06/28 08:25:51;;;;;;;9.88;3.40;;;;;;;22.79;100.00;100601.19;5531753;32;34551;-68
2022/06/28 08:28:54;;;;;;;10.82;3.62;;;;;;;22.50;100.00;100602.22;5531413;32;34077;-67
2022/06/28 08:31:56;;;;;;;7.80;2.72;;;;;;;22.89;100.00;100601.38;5531158;32;34678;-68
2022/06/28 08:34:59;;;;;;;7.60;3.03;;;;;;;22.95;100.00;100597.66;5531207;32;34557;-68
2022/06/28 08:38:05;;;;;;;5.65;2.30;;;;;;;23.11;100.00;100608.75;5529943;32;33647;-66
2022/06/28 08:41:08;;;;;;;4.50;2.30;;;;;;;23.29;98.31;100614.75;5531616;32;34413;-65
2022/06/28 08:44:11;;;;;;;6.18;2.22;;;;;;;23.25;96.29;100619.03;5529525;32;34385;-66
2022/06/28 08:47:15;;;;;;;4.85;1.83;;;;;;;23.40;93.42;100621.16;5531007;32;35085;-66
2022/06/28 08:50:32;;;;;;;6.18;1.98;;;;;;;23.79;88.13;100622.91;5530452;32;34201;-65
2022/06/28 08:53:38;;;;;;;7.40;2.20;;;;;;;23.67;86.05;100630.28;5530907;32;33918;-65
2022/06/28 08:56:40;;;;;;;6.15;2.22;;;;;;;23.52;89.38;100626.53;5531369;32;34512;-64
2022/06/28 08:59:44;;;;;;;3.60;2.00;;;;;;;23.86;87.44;100633.56;5531405;32;33850;-64
2022/06/28 09:02:47;;;;;;;2.70;1.70;;;;;;;24.07;87.39;100621.94;5530962;32;34075;-64
2022/06/28 09:05:51;;;;;;;8.38;1.90;;;;;;;24.03;86.17;100625.41;5530548;32;34021;-65
2022/06/28 09:08:55;;;;;;;4.90;2.00;;;;;;;23.92;88.03;100627.13;5531153;32;33913;-64
2022/06/28 09:11:58;;;;;;;4.57;2.00;;;;;;;23.79;88.17;100633.75;5530893;32;32771;-64
2022/06/28 09:15:04;;;;;;;3.90;2.45;;;;;;;23.82;90.16;100643.25;5517679;32;34556;-64
2022/06/28 09:18:07;;;;;;;8.00;2.20;;;;;;;24.05;90.48;100636.81;5530766;32;33903;-64
2022/06/28 09:21:13;;;;;;;6.20;2.40;;;;;;;24.33;90.48;100644.00;5530736;32;34198;-65
2022/06/28 09:24:25;;;;;;;6.22;2.50;;;;;;;24.75;87.16;100636.09;5530772;32;33938;-64
2022/06/28 09:27:34;;;;;;;4.18;2.22;;;;;;;25.20;84.52;100649.34;5529884;32;34023;-64
2022/06/28 09:30:37;;;;;;;6.05;1.92;;;;;;;25.45;80.22;100641.41;5530859;32;34058;-65
2022/06/28 09:33:39;;;;;;;4.03;2.08;;;;;;;25.96;79.76;100638.00;5529866;32;32705;-65
2022/06/28 09:36:56;;;;;;;8.23;2.50;;;;;;;26.24;77.81;100644.16;5530891;32;34114;-65
2022/06/28 09:40:16;;;;;;;2.70;1.85;;;;;;;26.19;77.27;100644.13;5531144;32;34015;-64
2022/06/28 09:43:19;;;;;;;9.07;2.83;;;;;;;26.25;76.77;100646.63;5530483;32;34574;-64
2022/06/28 09:46:23;;;;;;;2.47;1.75;;;;;;;26.74;74.88;100643.53;5529723;32;34480;-65
2022/06/28 09:49:29;;;;;;;4.93;2.05;;;;;;;27.67;71.37;100655.97;5530514;32;34666;-65
2022/06/28 09:52:33;;;;;;;2.92;1.92;;;;;;;27.63;69.98;100651.34;5530538;32;34602;-64
2022/06/28 09:55:42;;;;;;;5.82;2.08;;;;;;;27.77;69.79;100651.59;5530352;32;33889;-64
2022/06/28 09:58:45;;;;;;;4.40;2.15;;;;;;;28.45;68.34;100658.25;5529591;32;34064;-64
2022/06/28 10:01:48;;;;;;;6.62;2.25;;;;;;;29.77;63.00;100652.78;5530255;32;34636;-66
2022/06/28 10:04:51;;;;;;;6.00;1.80;;;;;;;29.20;63.87;100648.03;5530648;32;34560;-65
2022/06/28 10:07:54;;;;;;;9.13;3.50;;;;;;;28.52;65.71;100645.12;5530354;32;34025;-65
2022/06/28 10:10:57;;;;;;;3.05;2.00;;;;;;;29.05;63.16;100648.94;5530449;32;34116;-66
2022/06/28 10:17:49;;;;;;;6.40;2.17;;;;;;;30.09;59.23;100643.97;5530252;32;34030;-68
2022/06/28 10:20:52;;;;;;;6.93;1.98;;;;;;;30.23;59.92;100650.37;5530368;32;34650;-68
2022/06/28 10:24:00;;;;;;;5.30;2.28;;;;;;;31.95;55.62;100636.87;5530124;32;33980;-67
2022/06/28 10:27:14;;;;;;;7.43;2.33;;;;;;;31.98;54.47;100633.53;5529523;32;34371;-68
2022/06/28 10:30:24;;;;;;;6.10;2.33;;;;;;;34.57;46.04;100634.38;5529795;32;34187;-67
2022/06/28 10:33:41;;;;;;;5.28;2.28;;;;;;;34.10;47.80;100636.00;5530038;32;34293;-68
2022/06/28 10:36:47;;;;;;;3.72;2.00;;;;;;;34.68;46.41;100626.66;5530371;32;33974;-68
2022/06/28 10:40:22;;;;;;;4.57;1.83;;;;;;;34.10;46.47;100629.69;5529811;32;34009;-69
2022/06/28 10:43:27;;;;;;;8.57;2.00;;;;;;;33.28;47.51;100627.44;5529787;32;34671;-69
2022/06/28 10:46:30;;;;;;;5.18;2.10;;;;;;;34.45;45.96;100617.69;5529711;32;34567;-68
2022/06/28 10:49:42;;;;;;;7.05;2.03;;;;;;;34.28;45.93;100615.69;5530090;32;33953;-65
2022/06/28 10:53:00;;;;;;;2.40;1.70;;;;;;;35.71;42.53;100616.37;5529549;32;34018;-67
2022/06/28 10:56:15;;;;;;;4.22;1.85;;;;;;;35.26;44.00;100615.16;5529555;32;33942;-67
2022/06/28 10:59:35;;;;;;;4.30;2.00;;;;;;;36.50;40.84;100623.94;5529373;32;33961;-66
2022/06/28 11:02:50;;;;;;;3.05;2.00;;;;;;;37.17;38.74;100611.13;5529306;32;34171;-67
2022/06/28 11:05:54;;;;;;;5.10;1.85;;;;;;;37.35;38.42;100610.59;5529256;32;34026;-67
2022/06/28 11:09:01;;;;;;;3.55;1.85;;;;;;;38.34;36.59;100604.06;5531464;32;34127;-66
2022/06/28 11:12:35;;;;;;;4.07;2.00;;;;;;;37.65;37.65;100607.72;5519154;32;34657;-66
2022/06/28 11:15:39;;;;;;;4.32;1.70;;;;;;;36.39;40.02;100603.41;5531911;32;34088;-68
2022/06/28 11:18:42;;;;;;;6.68;2.10;;;;;;;38.09;36.98;100600.50;5531941;32;34469;-68
2022/06/28 11:21:48;;;;;;;3.05;1.95;;;;;;;36.94;38.61;100607.88;5532156;32;34607;-66
2022/06/28 11:24:52;;;;;;;3.25;1.80;;;;;;;38.64;34.78;100591.53;5531946;32;34079;-67
2022/06/28 11:27:57;;;;;;;4.72;1.92;;;;;;;38.14;35.67;100595.53;5531938;32;34692;-69
2022/06/28 11:30:59;;;;;;;2.47;1.87;;;;;;;37.93;36.70;100592.03;5531932;32;34043;-68
2022/06/28 11:34:02;;;;;;;4.70;2.00;;;;;;;37.94;35.99;100584.53;5531947;32;34754;-67
2022/06/28 11:37:08;;;;;;;5.05;1.98;;;;;;;37.50;36.21;100586.19;5531234;32;32524;-67
2022/06/28 11:40:11;;;;;;;2.00;1.52;;;;;;;38.66;34.65;100576.16;5531839;32;35239;-67
2022/06/28 11:43:16;;;;;;;2.67;1.80;;;;;;;40.57;31.32;100574.00;5531975;32;33996;-68
2022/06/28 11:46:26;;;;;;;7.75;2.08;;;;;;;41.83;29.73;100574.06;5519181;32;33878;-68
2022/06/28 11:49:36;;;;;;;5.50;2.10;;;;;;;41.73;29.94;100564.34;5531930;32;33915;-69
2022/06/28 11:52:59;;;;;;;5.28;1.98;;;;;;;42.90;27.79;100568.81;5532127;32;34055;-68
2022/06/28 11:56:02;;;;;;;3.85;1.70;;;;;;;40.35;30.71;100562.41;5531943;32;33876;-69
2022/06/28 11:59:05;;;;;;;4.78;1.85;;;;;;;42.79;27.77;100557.56;5531864;32;33957;-69
2022/06/28 12:02:10;;;;;;;3.90;1.67;;;;;;;41.49;28.84;100548.78;5531852;32;34478;-70
2022/06/28 12:05:13;;;;;;;8.77;1.80;;;;;;;40.32;31.29;100540.88;5531459;32;34266;-68
2022/06/28 12:08:16;;;;;;;2.97;1.70;;;;;;;43.32;26.32;100551.75;5531039;32;33929;-69
2022/06/28 12:11:40;;;;;;;5.45;1.80;;;;;;;41.50;28.99;100536.50;5531883;32;34033;-69
2022/06/28 12:14:45;;;;;;;3.67;1.60;;;;;;;42.32;26.92;100532.19;5531630;32;34325;-69
2022/06/28 12:17:49;;;;;;;4.65;2.10;;;;;;;40.38;29.65;100521.91;5531274;32;34036;-68
2022/06/28 12:20:58;;;;;;;4.03;1.60;;;;;;;42.48;26.40;100524.44;5530248;32;33829;-68
2022/06/28 12:24:02;;;;;;;7.62;1.83;;;;;;;43.99;24.84;100527.19;5530939;32;34656;-68
2022/06/28 12:27:13;;;;;;;4.85;1.83;;;;;;;43.57;24.94;100516.47;5518599;32;33975;-69
2022/06/28 12:30:16;;;;;;;3.03;1.60;;;;;;;44.24;24.12;100518.13;5531581;32;33906;-68
2022/06/28 12:33:21;;;;;;;3.15;1.75;;;;;;;43.06;25.78;100512.75;5531380;32;34631;-69
2022/06/28 12:36:24;;;;;;;4.45;1.60;;;;;;;42.16;26.10;100515.66;5531476;32;34544;-69
2022/06/28 12:39:27;;;;;;;2.30;1.40;;;;;;;43.59;24.58;100516.88;5531568;32;34013;-69
2022/06/28 12:42:31;;;;;;;3.10;1.50;;;;;;;42.67;25.22;100506.72;5531211;32;34089;-69
2022/06/28 12:45:38;;;;;;;6.17;1.80;;;;;;;42.82;24.79;100511.31;5531303;32;34914;-69
2022/06/28 12:48:40;;;;;;;3.20;1.60;;;;;;;42.89;25.18;100497.44;5529987;32;32995;-69
2022/06/28 12:51:47;;;;;;;3.03;1.50;;;;;;;44.69;22.57;100500.75;5531459;32;34082;-68
2022/06/28 12:54:51;;;;;;;4.72;1.73;;;;;;;45.37;22.04;100496.06;5530242;32;33954;-69
2022/06/28 12:57:56;;;;;;;2.55;1.48;;;;;;;46.59;21.12;100501.84;5530532;32;34237;-68
2022/06/28 13:00:58;;;;;;;4.72;1.55;;;;;;;46.98;19.02;100498.81;5518168;32;34081;-70
2022/06/28 13:04:02;;;;;;;3.10;1.55;;;;;;;46.38;20.46;100498.34;5530202;32;32782;-69
2022/06/28 13:07:06;;;;;;;2.10;1.30;;;;;;;46.70;18.57;100487.75;5530723;32;34811;-69
2022/06/28 13:10:11;;;;;;;4.28;1.50;;;;;;;47.76;19.02;100486.12;5530312;32;34588;-69
2022/06/28 13:13:20;;;;;;;7.28;1.67;;;;;;;46.89;18.93;100478.00;5530006;32;32585;-74
2022/06/28 13:16:26;;;;;;;4.22;1.60;;;;;;;46.36;19.82;100481.09;5530709;32;33274;-68
2022/06/28 13:19:40;;;;;;;3.80;1.42;;;;;;;46.52;19.82;100473.00;5530082;32;34451;-67
2022/06/28 13:22:46;;;;;;;3.15;1.25;;;;;;;46.54;19.75;100462.97;5530830;32;34152;-68
2022/06/28 13:25:49;;;;;;;4.97;1.65;;;;;;;45.52;21.08;100463.25;5530147;32;32353;-68
2022/06/28 13:28:52;;;;;;;3.30;1.45;;;;;;;47.73;17.68;100458.88;5530512;32;33966;-70
2022/06/28 13:31:55;;;;;;;3.50;1.60;;;;;;;45.46;19.96;100457.28;5529976;32;34629;-70
2022/06/28 13:35:00;;;;;;;4.25;1.40;;;;;;;46.05;19.43;100449.91;5530638;32;34606;-68
2022/06/28 13:38:05;;;;;;;5.62;1.65;;;;;;;44.70;20.44;100439.97;5530814;32;34625;-68
2022/06/28 13:41:07;;;;;;;3.53;1.30;;;;;;;43.92;21.02;100431.25;5530745;32;34610;-68
2022/06/28 13:44:12;;;;;;;7.53;1.45;;;;;;;43.80;21.49;100434.38;5530742;32;33993;-69
2022/06/28 13:47:15;;;;;;;3.67;1.60;;;;;;;46.01;19.75;100437.13;5530763;32;33276;-68
2022/06/28 13:50:18;;;;;;;4.37;1.50;;;;;;;46.85;18.26;100426.69;5529835;32;33874;-68
2022/06/28 13:53:31;;;;;;;2.87;1.60;;;;;;;46.66;18.49;100437.25;5530356;32;34668;-68
2022/06/28 13:56:37;;;;;;;2.03;1.58;;;;;;;46.92;18.20;100432.25;5530451;32;34637;-68
2022/06/28 13:59:40;;;;;;;2.60;1.48;;;;;;;44.41;21.06;100417.50;5530276;32;34022;-68
2022/06/28 14:02:45;;;;;;;3.08;1.58;;;;;;;43.78;21.58;100417.19;5529766;32;33463;-69
2022/06/28 14:05:48;;;;;;;3.67;1.58;;;;;;;42.57;22.74;100409.75;5530065;32;34864;-68
2022/06/28 14:08:57;;;;;;;6.00;1.60;;;;;;;44.63;20.47;100409.97;5529685;32;34376;-68
2022/06/28 14:12:01;;;;;;;2.72;1.30;;;;;;;43.89;21.17;100412.50;5530012;32;33952;-69
2022/06/28 14:15:05;;;;;;;7.28;1.33;;;;;;;46.01;18.86;100412.69;5530168;32;34174;-69
2022/06/28 14:18:07;;;;;;;2.17;1.35;;;;;;;45.42;19.03;100409.63;5529796;32;34033;-68
2022/06/28 14:21:10;;;;;;;3.83;1.48;;;;;;;46.50;17.98;100403.22;5530042;32;34661;-68
2022/06/28 14:24:13;;;;;;;4.97;1.40;;;;;;;46.39;18.13;100398.88;5529180;32;32388;-69
2022/06/28 14:27:17;;;;;;;1.87;1.30;;;;;;;44.87;18.85;100395.22;5530115;32;34049;-69
2022/06/28 14:30:20;;;;;;;2.25;1.30;;;;;;;42.28;22.16;100381.56;5529107;32;33972;-69
2022/06/28 14:33:23;;;;;;;3.92;1.52;;;;;;;41.47;22.96;100372.94;5529947;32;33914;-69
2022/06/28 14:36:30;;;;;;;3.58;1.30;;;;;;;41.68;22.37;100364.06;5530207;32;34067;-69